Time;durP1;ratioP1;P1;durP2;ratioP2;P2;SDS_P1;SDS_P2;PMS_P1;PMS_P2;Temp;Humidity;BMP_temperature;BMP_pressure;BME280_temperature;BME280_humidity;BME280_pressure;Samples;Min_cycle;Max_cycle;Signal;HPM_P1;HPM_P2
2023/04/29 00:02:23;;;;;;;2.25;1.90;;;;;;;16.68;63.21;96913.69;4883324;28;20101;-75
2023/04/29 00:04:48;;;;;;;1.90;1.80;;;;;;;16.68;63.19;96916.31;4863625;28;20178;-75
2023/04/29 00:07:14;;;;;;;3.50;2.28;;;;;;;16.74;62.99;96911.72;4879346;28;20173;-76
2023/04/29 00:09:40;;;;;;;2.20;1.85;;;;;;;16.64;63.17;96910.84;4856141;28;20237;-76
2023/04/29 00:12:06;;;;;;;2.17;1.90;;;;;;;16.57;63.27;96901.78;4873087;28;20192;-75
2023/04/29 00:14:31;;;;;;;2.10;1.90;;;;;;;16.61;63.45;96906.16;4859702;28;20453;-76
2023/04/29 00:16:57;;;;;;;2.10;1.90;;;;;;;16.71;62.83;96907.84;4863284;28;20035;-75
2023/04/29 00:19:23;;;;;;;2.45;1.80;;;;;;;16.68;62.79;96905.78;4852403;28;20462;-76
2023/04/29 00:21:48;;;;;;;2.00;1.83;;;;;;;16.59;62.95;96910.94;4880192;28;20558;-75
2023/04/29 00:24:14;;;;;;;2.25;1.60;;;;;;;16.60;63.23;96907.22;4881788;28;20203;-75
2023/04/29 00:26:40;;;;;;;1.90;1.67;;;;;;;16.59;62.91;96910.94;4866810;28;20503;-75
2023/04/29 00:29:05;;;;;;;2.15;1.95;;;;;;;16.55;62.94;96907.31;4869600;28;20517;-76
2023/04/29 00:31:31;;;;;;;2.75;2.17;;;;;;;16.60;62.83;96912.47;4883898;28;20600;-75
2023/04/29 00:33:57;;;;;;;2.13;1.92;;;;;;;16.70;62.65;96918.66;4873595;28;20353;-75
2023/04/29 00:36:22;;;;;;;2.40;1.75;;;;;;;16.75;62.22;96921.19;4871013;28;20286;-75
2023/04/29 00:38:47;;;;;;;2.13;1.88;;;;;;;16.80;62.21;96919.25;4889775;28;20298;-75
2023/04/29 00:41:13;;;;;;;2.88;1.80;;;;;;;16.90;61.68;96912.28;4854085;28;20982;-76
2023/04/29 00:43:39;;;;;;;2.10;1.77;;;;;;;16.88;61.67;96917.84;4876332;28;20191;-75
2023/04/29 00:46:05;;;;;;;2.35;1.90;;;;;;;16.90;61.79;96914.91;4882993;28;20413;-75
2023/04/29 00:48:31;;;;;;;3.35;1.90;;;;;;;16.85;62.18;96910.53;4891022;28;21438;-75
2023/04/29 00:50:57;;;;;;;3.50;2.28;;;;;;;16.85;61.86;96911.28;4858679;28;20251;-75
2023/04/29 00:53:23;;;;;;;2.40;1.70;;;;;;;16.92;62.07;96918.03;4867050;28;20057;-75
2023/04/29 00:55:50;;;;;;;1.63;1.50;;;;;;;16.87;62.57;96913.63;4853452;28;20173;-76
2023/04/29 00:58:17;;;;;;;3.03;1.83;;;;;;;16.99;61.73;96916.56;4888484;28;20200;-75
2023/04/29 01:00:43;;;;;;;2.42;1.85;;;;;;;16.98;61.43;96909.75;4886805;28;20062;-75
2023/04/29 01:03:08;;;;;;;2.00;1.70;;;;;;;16.91;61.00;96903.31;4898704;22;20603;-84
2023/04/29 01:05:34;;;;;;;1.75;1.65;;;;;;;16.96;61.50;96914.50;4866603;28;20381;-84
2023/04/29 01:08:08;;;;;;;2.25;1.63;;;;;;;16.92;61.73;96921.44;4884981;28;20247;-84
2023/04/29 01:11:10;;;;;;;2.55;1.70;;;;;;;16.96;61.41;96922.38;4892135;28;20395;-83
2023/04/29 01:13:43;;;;;;;1.77;1.30;;;;;;;16.94;61.08;96927.16;4867829;28;20270;-83
2023/04/29 01:16:30;;;;;;;1.77;1.67;;;;;;;16.78;61.53;96928.50;4895215;28;20274;-84
2023/04/29 01:19:01;;;;;;;2.05;1.52;;;;;;;16.66;61.42;96924.47;4905136;28;20273;-83
2023/04/29 01:21:27;;;;;;;1.90;1.52;;;;;;;16.51;61.61;96927.38;4891167;28;20284;-83
2023/04/29 01:23:55;;;;;;;1.48;1.25;;;;;;;16.52;61.52;96931.56;4867671;28;20330;-83
2023/04/29 01:26:21;;;;;;;1.70;1.60;;;;;;;16.64;61.30;96931.13;4886572;28;20187;-84
2023/04/29 01:29:09;;;;;;;1.50;1.40;;;;;;;16.82;60.82;96940.75;4862431;28;20598;-84
2023/04/29 01:31:38;;;;;;;3.40;1.25;;;;;;;16.58;61.47;96940.91;4896667;28;20204;-84
2023/04/29 01:34:10;;;;;;;1.80;1.50;;;;;;;16.50;61.33;96946.06;4900994;28;20658;-83
2023/04/29 01:36:40;;;;;;;1.50;1.20;;;;;;;16.49;61.58;96945.28;4903213;28;20298;-83
2023/04/29 01:39:44;;;;;;;1.50;1.40;;;;;;;16.65;60.54;96943.94;4884571;28;20624;-84
2023/04/29 01:42:30;;;;;;;2.20;1.58;;;;;;;16.65;61.14;96948.41;4883492;28;20403;-84
2023/04/29 01:44:56;;;;;;;1.83;1.48;;;;;;;16.34;61.00;96935.78;4885854;28;20672;-83
2023/04/29 01:47:22;;;;;;;1.90;1.55;;;;;;;16.25;61.29;96934.88;4894029;28;20133;-83
2023/04/29 01:49:48;;;;;;;1.63;1.40;;;;;;;16.16;61.54;96934.75;4883945;28;20658;-83
2023/04/29 01:52:13;;;;;;;1.40;1.20;;;;;;;16.06;61.70;96938.31;4886249;28;20161;-83
2023/04/29 01:54:39;;;;;;;2.30;1.20;;;;;;;15.97;62.09;96936.59;4881850;28;20155;-84
2023/04/29 01:57:04;;;;;;;2.03;1.60;;;;;;;15.95;62.38;96946.63;4893538;28;20277;-83
2023/04/29 01:59:30;;;;;;;1.73;1.50;;;;;;;15.94;62.69;96948.47;4896419;28;20333;-84
2023/04/29 02:01:58;;;;;;;2.92;1.50;;;;;;;15.82;62.70;96948.88;4867542;28;20195;-83
2023/04/29 02:04:27;;;;;;;1.40;1.30;;;;;;;15.73;62.28;96934.81;4900782;28;20223;-83
2023/04/29 02:06:52;;;;;;;2.53;1.20;;;;;;;15.56;61.90;96930.06;4883875;28;20173;-84
2023/04/29 02:09:18;;;;;;;1.38;1.05;;;;;;;15.36;62.17;96931.84;4869959;28;20640;-82
2023/04/29 02:11:43;;;;;;;1.33;1.23;;;;;;;15.22;62.68;96938.06;4853217;28;20256;-84
2023/04/29 02:14:09;;;;;;;2.20;1.50;;;;;;;15.12;62.60;96944.97;4901986;28;20194;-83
2023/04/29 02:16:34;;;;;;;1.40;1.20;;;;;;;15.10;63.54;96948.94;4868896;28;20730;-84
2023/04/29 02:18:59;;;;;;;1.27;1.13;;;;;;;15.19;63.12;96949.13;4903111;28;20760;-84
2023/04/29 02:21:25;;;;;;;1.88;1.20;;;;;;;15.31;61.84;96946.88;4868324;28;20177;-84
2023/04/29 02:23:53;;;;;;;2.95;1.40;;;;;;;15.18;63.08;96956.19;4901461;28;20210;-84
2023/04/29 02:26:19;;;;;;;1.50;1.40;;;;;;;15.17;63.16;96958.03;4885601;28;20658;-84
2023/04/29 02:28:44;;;;;;;1.63;1.33;;;;;;;15.25;63.36;96961.09;4893416;28;20313;-84
2023/04/29 02:31:10;;;;;;;1.73;1.23;;;;;;;15.11;62.80;96961.78;4902481;28;20220;-83
2023/04/29 02:33:35;;;;;;;1.67;1.20;;;;;;;14.94;62.12;96954.34;4870227;28;20640;-84
2023/04/29 02:36:00;;;;;;;1.52;1.23;;;;;;;14.83;62.81;96962.59;4884325;28;20269;-84
2023/04/29 02:38:26;;;;;;;2.50;1.20;;;;;;;14.74;62.63;96959.78;4864029;28;20196;-83
2023/04/29 02:40:51;;;;;;;1.10;1.00;;;;;;;14.58;62.62;96959.91;4882769;28;20281;-83
2023/04/29 02:43:16;;;;;;;1.58;1.20;;;;;;;14.56;63.13;96966.44;4886596;28;20259;-84
2023/04/29 02:45:42;;;;;;;1.08;0.98;;;;;;;14.47;62.86;96962.88;4870550;28;20656;-84
2023/04/29 02:48:07;;;;;;;1.27;1.17;;;;;;;14.39;63.32;96954.53;4899161;28;20666;-83
2023/04/29 02:50:32;;;;;;;1.88;1.20;;;;;;;14.29;63.26;96967.72;4886758;28;20274;-84
2023/04/29 02:52:58;;;;;;;1.27;1.17;;;;;;;14.25;63.39;96969.31;4901099;28;20278;-83
2023/04/29 02:55:23;;;;;;;1.23;1.13;;;;;;;14.15;63.46;96967.53;4886773;28;20222;-83
2023/04/29 02:57:49;;;;;;;1.85;1.25;;;;;;;14.15;63.72;96972.00;4881376;28;20300;-84
2023/04/29 03:00:14;;;;;;;1.35;1.25;;;;;;;14.13;63.80;96968.88;4902535;28;20256;-84
2023/04/29 03:02:40;;;;;;;2.15;1.10;;;;;;;14.07;63.94;96962.88;4889189;28;20296;-84
2023/04/29 03:05:05;;;;;;;1.27;1.17;;;;;;;14.03;64.42;96970.50;4885816;28;20208;-84
2023/04/29 03:07:31;;;;;;;1.85;1.25;;;;;;;13.94;64.01;96956.41;4881736;28;20179;-83
2023/04/29 03:09:56;;;;;;;1.40;0.80;;;;;;;13.92;63.70;96961.13;4895655;28;20253;-84
2023/04/29 03:12:21;;;;;;;1.88;1.10;;;;;;;13.81;63.99;96957.00;4883073;28;20217;-83
2023/04/29 03:14:47;;;;;;;1.50;1.17;;;;;;;13.82;63.90;96963.81;4890836;28;20588;-84
2023/04/29 03:17:13;;;;;;;1.70;1.30;;;;;;;13.62;64.06;96949.78;4898340;28;20211;-84
2023/04/29 03:19:38;;;;;;;3.10;1.52;;;;;;;13.62;64.56;96964.69;4909172;28;20172;-84
2023/04/29 03:22:04;;;;;;;1.35;1.25;;;;;;;13.62;64.43;96964.69;4859923;28;20270;-83
2023/04/29 03:24:29;;;;;;;1.52;1.42;;;;;;;13.59;64.60;96976.47;4856725;28;20206;-84
2023/04/29 03:26:54;;;;;;;2.47;1.40;;;;;;;13.62;64.47;96975.16;4900894;28;20220;-83
2023/04/29 03:29:20;;;;;;;1.48;1.38;;;;;;;13.57;64.89;96970.75;4886574;28;20164;-83
2023/04/29 03:31:45;;;;;;;1.80;1.70;;;;;;;13.55;65.05;96964.19;4883790;28;20268;-83
2023/04/29 03:34:13;;;;;;;1.55;1.45;;;;;;;13.58;65.23;96968.91;4885766;28;20194;-84
2023/04/29 03:36:38;;;;;;;1.50;1.23;;;;;;;13.51;65.32;96961.34;4893021;28;20168;-84
2023/04/29 03:39:04;;;;;;;2.30;1.40;;;;;;;13.53;65.42;96961.06;4881366;28;20704;-84
2023/04/29 03:41:29;;;;;;;1.40;1.30;;;;;;;13.65;65.56;96978.00;4904315;28;20358;-83
2023/04/29 03:43:59;;;;;;;1.80;1.70;;;;;;;13.61;64.98;96978.84;4852239;29;20192;-84
2023/04/29 03:46:25;;;;;;;1.80;1.50;;;;;;;13.56;65.10;96979.63;4886629;28;20306;-84
2023/04/29 03:48:51;;;;;;;1.60;1.50;;;;;;;13.49;65.21;96972.06;4871906;28;20779;-84
2023/04/29 03:51:17;;;;;;;1.35;1.25;;;;;;;13.54;65.17;96986.16;4889745;28;20235;-84
2023/04/29 03:53:43;;;;;;;3.05;1.88;;;;;;;13.45;64.97;96981.50;4875512;28;20181;-83
2023/04/29 03:56:08;;;;;;;1.88;1.60;;;;;;;13.49;65.09;96993.00;4892061;28;20226;-84
2023/04/29 03:58:33;;;;;;;2.15;1.95;;;;;;;13.46;65.20;96987.50;4872422;28;20393;-83
2023/04/29 04:00:59;;;;;;;2.20;1.50;;;;;;;13.47;65.34;96986.47;4893832;28;20249;-83
2023/04/29 04:03:26;;;;;;;2.58;1.45;;;;;;;13.43;65.92;96983.59;4874808;28;20189;-83
2023/04/29 04:05:51;;;;;;;1.92;1.75;;;;;;;13.48;65.51;96988.03;4891342;28;20244;-84
2023/04/29 04:08:17;;;;;;;1.67;1.58;;;;;;;13.54;65.55;96988.78;4875333;28;20661;-84
2023/04/29 04:10:43;;;;;;;1.50;1.33;;;;;;;13.51;65.85;96978.88;4892981;28;20194;-83
2023/04/29 04:13:08;;;;;;;2.10;1.52;;;;;;;13.61;65.80;96984.06;4914851;28;20349;-84
2023/04/29 04:15:34;;;;;;;2.38;1.77;;;;;;;13.57;66.25;96978.59;4892120;28;20176;-83
2023/04/29 04:18:00;;;;;;;2.47;1.92;;;;;;;13.66;65.90;96991.88;4888118;28;20186;-84
2023/04/29 04:20:25;;;;;;;3.22;2.00;;;;;;;13.68;66.00;96997.63;4904041;28;20596;-84
2023/04/29 04:22:50;;;;;;;2.22;2.03;;;;;;;13.62;66.10;96990.84;4857635;28;20206;-83
2023/04/29 04:25:16;;;;;;;2.38;1.88;;;;;;;13.69;66.09;97004.41;4909591;28;20590;-84
2023/04/29 04:27:41;;;;;;;2.00;1.63;;;;;;;13.72;65.73;97006.50;4874948;28;20208;-84
2023/04/29 04:30:07;;;;;;;2.38;1.90;;;;;;;13.61;65.86;96997.16;4890414;28;20266;-84
2023/04/29 04:32:33;;;;;;;3.28;1.75;;;;;;;13.64;65.57;97010.47;4885630;28;20035;-83
2023/04/29 04:34:58;;;;;;;3.53;2.35;;;;;;;13.58;65.71;97011.53;4901011;28;20338;-83
2023/04/29 04:37:24;;;;;;;2.58;2.38;;;;;;;13.67;65.47;97015.16;4897717;28;20180;-83
2023/04/29 04:39:49;;;;;;;2.50;2.25;;;;;;;13.49;65.30;97000.06;4875896;28;20683;-84
2023/04/29 04:42:15;;;;;;;4.68;2.90;;;;;;;13.54;65.66;97009.69;4902137;28;20206;-83
2023/04/29 04:44:40;;;;;;;2.38;2.10;;;;;;;13.65;65.36;97026.94;4893554;28;20207;-84
2023/04/29 04:47:06;;;;;;;2.17;1.73;;;;;;;13.71;65.18;97040.78;4857816;28;20278;-84
2023/04/29 04:49:31;;;;;;;2.45;2.20;;;;;;;13.79;65.03;97042.84;4906460;28;20270;-84
2023/04/29 04:51:56;;;;;;;2.90;2.08;;;;;;;13.77;65.34;97042.34;4875046;28;20289;-83
2023/04/29 04:54:22;;;;;;;3.13;2.30;;;;;;;13.75;65.11;97032.13;4843864;28;20174;-83
2023/04/29 04:56:47;;;;;;;2.60;2.38;;;;;;;13.92;65.26;97041.50;4890420;28;20275;-83
2023/04/29 04:59:13;;;;;;;2.72;2.33;;;;;;;13.84;65.00;97029.75;4911309;28;20690;-84
2023/04/29 05:01:38;;;;;;;2.30;2.10;;;;;;;14.04;65.36;97055.81;4909837;28;20205;-84
2023/04/29 05:04:04;;;;;;;2.60;2.00;;;;;;;14.08;65.86;97050.06;4900585;28;20211;-84
2023/04/29 05:06:29;;;;;;;2.75;2.33;;;;;;;14.09;65.80;97052.41;4906775;28;20648;-84
2023/04/29 05:08:55;;;;;;;4.03;2.63;;;;;;;14.10;65.68;97047.94;4897154;28;20234;-83
2023/04/29 05:11:21;;;;;;;2.53;2.30;;;;;;;14.14;65.25;97039.28;4882312;28;20201;-84
2023/04/29 05:13:47;;;;;;;3.38;2.75;;;;;;;14.26;65.30;97057.28;4910118;28;20171;-83
2023/04/29 05:16:12;;;;;;;3.45;2.83;;;;;;;14.30;65.31;97053.06;4895978;28;20259;-83
2023/04/29 05:18:38;;;;;;;4.40;3.47;;;;;;;14.35;64.68;97055.66;4905287;28;20552;-83
2023/04/29 05:21:03;;;;;;;3.42;3.13;;;;;;;14.25;65.10;97050.47;4870271;28;20289;-83
2023/04/29 05:23:28;;;;;;;2.67;2.47;;;;;;;14.35;65.15;97070.59;4888549;28;20214;-83
2023/04/29 05:25:54;;;;;;;3.53;2.75;;;;;;;14.37;64.91;97063.25;4873971;28;20282;-84
2023/04/29 05:28:20;;;;;;;3.90;2.80;;;;;;;14.45;65.67;97067.91;4858058;28;21039;-83
2023/04/29 05:30:46;;;;;;;2.63;2.25;;;;;;;14.46;65.53;97074.72;4887757;28;20721;-84
2023/04/29 05:33:11;;;;;;;3.50;3.20;;;;;;;14.57;64.76;97062.34;4894086;28;20273;-83
2023/04/29 05:35:37;;;;;;;4.22;3.08;;;;;;;14.51;64.84;97063.44;4891401;28;20206;-83
2023/04/29 05:38:03;;;;;;;4.00;3.10;;;;;;;14.60;64.50;97060.00;4889077;28;20302;-84
2023/04/29 05:40:28;;;;;;;3.33;3.03;;;;;;;14.62;64.81;97062.34;4901130;28;20176;-83
2023/04/29 05:42:53;;;;;;;3.10;2.65;;;;;;;14.68;64.06;97063.84;4872996;28;20108;-83
2023/04/29 05:45:19;;;;;;;3.35;2.55;;;;;;;14.72;64.15;97070.13;4887852;28;20246;-84
2023/04/29 05:47:44;;;;;;;3.50;3.03;;;;;;;14.80;63.76;97068.75;4887723;28;20255;-83
2023/04/29 05:50:10;;;;;;;3.40;2.95;;;;;;;14.90;63.46;97073.16;4908673;28;20266;-83
2023/04/29 05:52:36;;;;;;;3.85;3.05;;;;;;;14.93;63.30;97089.09;4886510;28;20181;-83
2023/04/29 05:55:01;;;;;;;3.78;2.95;;;;;;;14.89;63.12;97082.84;4888830;28;20621;-83
2023/04/29 05:57:27;;;;;;;4.22;2.88;;;;;;;14.88;63.28;97067.41;4873370;28;20183;-83
2023/04/29 05:59:54;;;;;;;2.95;2.60;;;;;;;15.00;63.25;97080.94;4877540;28;20270;-84
2023/04/29 06:02:19;;;;;;;3.97;2.92;;;;;;;15.21;62.23;97084.16;4885752;28;20333;-84
2023/04/29 06:04:46;;;;;;;3.45;2.95;;;;;;;15.31;62.98;97093.78;4887093;28;20299;-83
2023/04/29 06:07:12;;;;;;;4.10;3.00;;;;;;;15.44;62.25;97090.50;4896606;28;20168;-83
2023/04/29 06:09:37;;;;;;;3.47;2.90;;;;;;;15.56;61.47;97087.50;4845912;29;20238;-84
2023/04/29 06:12:03;;;;;;;3.55;2.75;;;;;;;15.60;61.13;97095.59;4899269;28;20557;-84
2023/04/29 06:14:29;;;;;;;3.35;2.53;;;;;;;15.69;61.07;97101.78;4873515;28;20742;-84
2023/04/29 06:16:54;;;;;;;3.92;3.10;;;;;;;15.72;61.13;97096.00;4892786;28;20210;-83
2023/04/29 06:19:20;;;;;;;3.13;2.78;;;;;;;15.80;60.94;97103.28;4910863;28;20131;-84
2023/04/29 06:21:45;;;;;;;3.05;2.75;;;;;;;15.93;60.28;97099.19;4873401;28;20226;-84
2023/04/29 06:24:10;;;;;;;4.13;3.25;;;;;;;16.13;61.07;97102.66;4889056;28;20577;-83
2023/04/29 06:26:36;;;;;;;3.92;3.30;;;;;;;16.38;58.81;97101.53;4857191;28;20206;-84
2023/04/29 06:29:01;;;;;;;3.05;2.58;;;;;;;16.41;58.35;97101.75;4905022;28;20249;-84
2023/04/29 06:31:27;;;;;;;4.28;3.08;;;;;;;16.62;58.00;97102.25;4873089;28;20285;-84
2023/04/29 06:33:52;;;;;;;2.70;2.50;;;;;;;16.61;57.75;97107.78;4910197;28;20250;-84
2023/04/29 06:36:18;;;;;;;3.08;2.60;;;;;;;16.66;57.87;97113.75;4867296;28;21552;-84
2023/04/29 06:38:43;;;;;;;4.70;3.10;;;;;;;16.65;58.74;97106.16;4873731;28;20203;-83
2023/04/29 06:41:09;;;;;;;4.68;2.88;;;;;;;16.70;57.65;97110.56;4897109;28;20269;-83
2023/04/29 06:43:34;;;;;;;3.42;2.67;;;;;;;16.72;57.56;97117.09;4888399;28;20261;-84
2023/04/29 06:46:00;;;;;;;4.32;3.40;;;;;;;16.60;58.50;97120.13;4870360;28;20245;-83
2023/04/29 06:48:26;;;;;;;3.40;3.10;;;;;;;16.77;57.69;97119.63;4888262;28;20337;-84
2023/04/29 06:50:57;;;;;;;3.50;3.20;;;;;;;17.01;57.38;97131.94;4884596;28;20206;-84
2023/04/29 06:53:23;;;;;;;3.67;2.92;;;;;;;17.06;56.26;97128.47;4884267;28;20116;-84
2023/04/29 06:55:49;;;;;;;4.65;3.10;;;;;;;17.06;55.21;97118.72;4885747;28;20706;-83
2023/04/29 06:58:15;;;;;;;3.95;2.78;;;;;;;17.03;56.03;97133.25;4887593;28;20217;-84
2023/04/29 07:00:43;;;;;;;3.40;3.10;;;;;;;17.09;55.27;97133.94;4871992;28;20206;-82
2023/04/29 07:03:10;;;;;;;4.22;3.40;;;;;;;16.93;55.33;97128.13;4886614;28;20241;-82
2023/04/29 07:05:36;;;;;;;3.78;3.22;;;;;;;17.00;54.68;97138.28;4883111;28;20273;-84
2023/04/29 07:08:02;;;;;;;4.78;3.83;;;;;;;16.94;55.31;97134.94;4888419;28;20185;-83
2023/04/29 07:10:28;;;;;;;4.97;3.75;;;;;;;16.94;54.36;97145.47;4883852;28;20698;-83
2023/04/29 07:12:53;;;;;;;6.05;4.72;;;;;;;16.91;53.94;97146.03;4888975;28;20300;-82
2023/04/29 07:15:19;;;;;;;6.55;4.53;;;;;;;16.68;56.00;97142.41;4911210;28;20579;-84
2023/04/29 07:17:44;;;;;;;5.78;4.22;;;;;;;16.65;56.52;97143.72;4887093;28;20288;-83
2023/04/29 07:20:10;;;;;;;7.80;5.22;;;;;;;16.70;55.36;97147.38;4883658;28;20234;-83
2023/04/29 07:22:36;;;;;;;7.00;4.60;;;;;;;16.75;53.80;97155.97;4872835;28;20191;-84
2023/04/29 07:25:01;;;;;;;6.18;4.38;;;;;;;16.83;54.11;97162.44;4865299;28;20195;-83
2023/04/29 07:27:27;;;;;;;9.23;5.55;;;;;;;16.82;53.95;97168.75;4874677;28;20344;-82
2023/04/29 07:29:52;;;;;;;9.10;5.20;;;;;;;16.79;53.32;97171.94;4893834;28;20176;-83
2023/04/29 07:32:18;;;;;;;7.20;4.97;;;;;;;16.75;53.48;97171.72;4884118;28;20249;-83
2023/04/29 07:34:43;;;;;;;7.07;4.97;;;;;;;16.80;52.95;97170.88;4882650;28;20309;-84
2023/04/29 07:37:08;;;;;;;6.68;5.47;;;;;;;16.78;52.33;97183.53;4888467;28;20301;-83
2023/04/29 07:39:35;;;;;;;6.93;4.97;;;;;;;16.65;53.80;97185.78;4889813;28;20293;-83
2023/04/29 07:42:01;;;;;;;6.22;4.90;;;;;;;16.59;54.29;97184.31;4860422;28;20289;-83
2023/04/29 07:44:27;;;;;;;9.18;5.30;;;;;;;16.54;53.15;97188.84;4887168;28;20222;-82
2023/04/29 07:46:52;;;;;;;5.70;4.72;;;;;;;16.56;53.77;97195.38;4903609;28;20197;-85
2023/04/29 07:49:18;;;;;;;6.55;4.82;;;;;;;16.57;53.52;97194.31;4871035;28;20221;-84
2023/04/29 07:51:43;;;;;;;8.15;5.70;;;;;;;16.46;53.79;97198.13;4887223;28;20222;-83
2023/04/29 07:54:08;;;;;;;6.13;4.70;;;;;;;16.58;53.69;97206.41;4872653;28;20190;-84
2023/04/29 07:56:34;;;;;;;7.95;5.80;;;;;;;16.61;53.18;97200.56;4870113;28;20096;-83
2023/04/29 07:59:00;;;;;;;7.03;5.15;;;;;;;16.56;53.09;97200.63;4884075;28;20343;-83
2023/04/29 08:01:26;;;;;;;8.27;4.90;;;;;;;16.45;53.63;97205.25;4877710;28;20409;-83
2023/04/29 08:03:51;;;;;;;6.50;5.32;;;;;;;16.42;53.62;97212.91;4887130;28;20229;-84
2023/04/29 08:06:19;;;;;;;7.93;5.78;;;;;;;16.44;53.31;97216.03;4886781;28;20369;-84
2023/04/29 08:08:45;;;;;;;8.38;5.32;;;;;;;16.45;53.08;97220.22;4888758;28;20284;-84
2023/04/29 08:11:17;;;;;;;8.40;5.78;;;;;;;16.54;53.00;97218.53;4886867;28;20104;-83
2023/04/29 08:13:43;;;;;;;9.98;6.63;;;;;;;16.30;53.36;97223.81;4872706;28;20314;-83
2023/04/29 08:16:08;;;;;;;10.10;5.93;;;;;;;16.32;53.74;97226.94;4886615;28;20513;-84
2023/04/29 08:18:34;;;;;;;7.35;5.32;;;;;;;16.18;53.64;97216.31;4873654;28;20191;-83
2023/04/29 08:21:00;;;;;;;7.30;5.07;;;;;;;16.33;53.49;97231.16;4906239;28;20151;-83
2023/04/29 08:23:25;;;;;;;7.50;5.80;;;;;;;16.39;53.42;97237.88;4866666;28;20156;-83
2023/04/29 08:25:51;;;;;;;7.65;5.63;;;;;;;16.37;53.85;97224.25;4904723;28;20426;-84
2023/04/29 08:28:17;;;;;;;7.13;4.63;;;;;;;16.29;54.00;97223.00;4889331;28;20201;-84
2023/04/29 08:30:42;;;;;;;9.90;5.43;;;;;;;16.28;54.72;97229.34;4889183;28;20277;-83
2023/04/29 08:33:08;;;;;;;7.85;6.05;;;;;;;16.43;54.33;97231.03;4889006;28;20354;-84
2023/04/29 08:35:36;;;;;;;6.75;5.20;;;;;;;16.44;53.16;97235.22;4870616;28;20179;-83
2023/04/29 08:38:04;;;;;;;10.02;5.45;;;;;;;16.39;54.38;97229.22;4885870;28;20367;-83
2023/04/29 08:40:30;;;;;;;7.72;5.40;;;;;;;16.52;53.81;97241.72;4877439;28;20253;-84
2023/04/29 08:42:56;;;;;;;7.18;4.78;;;;;;;16.36;54.17;97220.06;4893456;28;20267;-84
2023/04/29 08:45:23;;;;;;;7.95;6.30;;;;;;;16.54;54.34;97246.69;4861487;28;20194;-83
2023/04/29 08:47:50;;;;;;;6.25;5.22;;;;;;;16.41;54.34;97232.34;4873147;28;20206;-84
2023/04/29 08:50:16;;;;;;;7.38;5.30;;;;;;;16.48;54.07;97240.69;4905872;28;20289;-83
2023/04/29 08:52:41;;;;;;;7.28;5.22;;;;;;;16.62;53.69;97249.47;4892068;28;20272;-83
2023/04/29 08:55:07;;;;;;;6.38;4.90;;;;;;;16.60;53.54;97245.53;4901769;28;20334;-84
2023/04/29 08:57:38;;;;;;;6.72;5.25;;;;;;;16.64;53.17;97252.59;4888667;28;20031;-84
2023/04/29 09:00:09;;;;;;;7.65;5.72;;;;;;;16.45;54.39;97249.94;4897700;28;20139;-84
2023/04/29 09:02:39;;;;;;;7.45;5.10;;;;;;;16.55;54.73;97259.53;4894635;28;20710;-84
2023/04/29 09:05:09;;;;;;;6.43;5.07;;;;;;;16.39;54.58;97251.03;4894903;28;20246;-83
2023/04/29 09:07:36;;;;;;;7.43;5.57;;;;;;;16.42;54.24;97268.09;4886699;28;20346;-83
2023/04/29 09:10:03;;;;;;;6.47;5.35;;;;;;;16.41;54.17;97258.63;4901956;28;20705;-83
2023/04/29 09:12:29;;;;;;;7.65;5.60;;;;;;;16.41;54.14;97274.41;4886725;28;20240;-83
2023/04/29 09:14:55;;;;;;;6.95;5.25;;;;;;;16.49;52.59;97265.91;4898174;28;20292;-83
2023/04/29 09:17:37;;;;;;;7.53;5.50;;;;;;;16.42;53.68;97270.72;4890230;28;20293;-83
2023/04/29 09:20:23;;;;;;;8.48;5.75;;;;;;;16.46;53.69;97276.97;4891894;28;20171;-83
2023/04/29 09:23:00;;;;;;;6.70;5.57;;;;;;;16.35;53.42;97283.41;4905227;28;20690;-83
2023/04/29 09:25:26;;;;;;;7.13;5.10;;;;;;;16.00;55.10;97280.06;4906096;28;20172;-83
2023/04/29 09:27:52;;;;;;;8.68;5.43;;;;;;;16.00;55.13;97274.81;4889903;28;20255;-82
2023/04/29 09:30:18;;;;;;;8.38;6.00;;;;;;;15.99;55.12;97288.97;4872152;28;20201;-83
2023/04/29 09:32:44;;;;;;;6.57;5.25;;;;;;;15.93;55.09;97279.59;4877496;28;20168;-83
2023/04/29 09:35:22;;;;;;;7.60;5.80;;;;;;;16.03;54.41;97290.03;4892809;28;20245;-83
2023/04/29 09:37:48;;;;;;;7.75;5.38;;;;;;;15.53;55.91;97292.75;4905145;28;20281;-82
2023/04/29 09:40:33;;;;;;;7.60;4.97;;;;;;;16.06;54.48;97299.97;4874054;28;20171;-83
2023/04/29 09:42:59;;;;;;;7.20;4.80;;;;;;;15.89;54.87;97289.88;4871423;28;20274;-83
2023/04/29 09:45:32;;;;;;;8.25;5.63;;;;;;;15.96;54.40;97300.06;4895536;28;20498;-82
2023/04/29 09:48:01;;;;;;;7.38;4.88;;;;;;;15.96;54.88;97303.47;4901417;28;20191;-83
2023/04/29 09:50:27;;;;;;;6.97;5.18;;;;;;;15.91;54.78;97304.28;4898212;28;20294;-83
2023/04/29 09:52:53;;;;;;;8.55;4.90;;;;;;;15.83;56.23;97307.50;4890682;28;20274;-83
2023/04/29 09:55:18;;;;;;;6.05;4.75;;;;;;;15.86;55.39;97296.44;4858108;28;20277;-84
2023/04/29 09:57:44;;;;;;;7.78;4.97;;;;;;;15.94;55.06;97307.41;4895678;28;20124;-84
2023/04/29 10:00:11;;;;;;;6.78;5.25;;;;;;;15.93;54.87;97311.88;4891128;28;20206;-82
2023/04/29 10:02:41;;;;;;;7.90;5.00;;;;;;;15.77;56.23;97316.47;4872372;28;20316;-83
2023/04/29 10:05:06;;;;;;;6.95;5.15;;;;;;;15.67;55.15;97308.66;4911925;28;20642;-82
2023/04/29 10:07:32;;;;;;;7.75;4.88;;;;;;;15.67;54.76;97303.41;4898292;28;20290;-83
2023/04/29 10:09:57;;;;;;;7.70;4.25;;;;;;;15.51;55.17;97315.84;4879414;28;20260;-83
2023/04/29 10:12:24;;;;;;;5.90;4.47;;;;;;;15.55;55.42;97306.38;4888691;28;20209;-83
2023/04/29 10:14:56;;;;;;;6.10;3.70;;;;;;;15.49;55.24;97313.50;4877835;28;20304;-83
2023/04/29 10:17:35;;;;;;;5.72;3.63;;;;;;;15.65;54.41;97308.16;4872661;28;20180;-83
2023/04/29 10:20:04;;;;;;;5.28;3.60;;;;;;;15.79;54.04;97309.13;4876671;28;20196;-83
2023/04/29 10:22:45;;;;;;;4.00;3.60;;;;;;;15.89;53.58;97311.66;4889795;28;20645;-81
2023/04/29 10:25:13;;;;;;;5.03;3.38;;;;;;;15.74;54.13;97320.41;4909253;28;20628;-83
2023/04/29 10:27:39;;;;;;;4.90;3.50;;;;;;;15.72;54.51;97317.25;4870375;28;20206;-83
2023/04/29 10:30:06;;;;;;;6.25;3.75;;;;;;;15.78;54.09;97309.38;4872944;28;20164;-83
2023/04/29 10:32:33;;;;;;;4.80;3.42;;;;;;;15.64;54.05;97309.97;4869699;28;20305;-82
2023/04/29 10:34:59;;;;;;;5.32;3.50;;;;;;;15.58;53.73;97295.34;4885905;28;20242;-82
2023/04/29 10:37:25;;;;;;;3.83;2.75;;;;;;;15.77;53.29;97297.34;4906137;28;20293;-82
2023/04/29 10:39:59;;;;;;;4.90;3.22;;;;;;;16.09;52.02;97309.91;4889146;28;20535;-82
2023/04/29 10:42:31;;;;;;;3.83;3.03;;;;;;;15.91;53.48;97309.53;4908999;28;20199;-83
2023/04/29 10:45:18;;;;;;;4.20;3.15;;;;;;;16.18;52.97;97316.16;4883455;28;20296;-83
2023/04/29 10:48:01;;;;;;;4.15;3.20;;;;;;;16.14;53.37;97315.13;4889183;28;20281;-82
2023/04/29 10:50:34;;;;;;;4.05;3.30;;;;;;;16.10;53.46;97306.22;4872224;28;20172;-82
2023/04/29 10:53:03;;;;;;;3.67;2.80;;;;;;;16.22;52.68;97311.91;4886735;28;20183;-82
2023/04/29 10:55:30;;;;;;;4.60;3.58;;;;;;;16.15;52.16;97302.78;4872822;28;20377;-83
2023/04/29 10:57:56;;;;;;;4.18;3.33;;;;;;;16.20;51.31;97298.25;4911481;28;20685;-83
2023/04/29 11:00:29;;;;;;;5.75;3.40;;;;;;;16.33;50.98;97301.28;4890188;28;20053;-83
2023/04/29 11:03:01;;;;;;;3.78;2.97;;;;;;;16.32;51.04;97300.50;4897504;28;20041;-83
2023/04/29 11:05:34;;;;;;;4.22;2.67;;;;;;;16.10;52.74;97301.75;4893577;28;20034;-81
2023/04/29 11:08:11;;;;;;;2.53;2.30;;;;;;;16.23;52.22;97302.97;4888085;28;20030;-81
2023/04/29 11:10:40;;;;;;;3.53;3.00;;;;;;;15.92;52.71;97302.47;4881470;28;20225;-81
2023/04/29 11:13:24;;;;;;;4.72;2.90;;;;;;;16.04;53.08;97299.44;4912275;28;20027;-82
2023/04/29 11:15:51;;;;;;;4.00;2.45;;;;;;;16.02;52.73;97309.44;4880202;28;20864;-81
2023/04/29 11:18:17;;;;;;;3.70;2.53;;;;;;;16.13;52.31;97300.44;4893010;28;20606;-81
2023/04/29 11:21:04;;;;;;;3.78;2.83;;;;;;;16.37;51.36;97310.19;4886348;28;20344;-82
2023/04/29 11:23:33;;;;;;;3.47;3.13;;;;;;;16.33;51.10;97301.28;4895448;28;20541;-82
2023/04/29 11:25:58;;;;;;;3.88;3.03;;;;;;;16.30;51.26;97300.00;4902762;28;20198;-82
2023/04/29 11:28:26;;;;;;;4.43;2.70;;;;;;;16.31;51.86;97308.66;4892646;28;20322;-82
2023/04/29 11:30:52;;;;;;;4.72;2.33;;;;;;;16.31;51.96;97309.44;4886383;28;20030;-82
2023/04/29 11:33:19;;;;;;;3.40;3.00;;;;;;;16.44;51.59;97308.78;4888252;28;20025;-81
2023/04/29 11:35:44;;;;;;;3.47;2.60;;;;;;;16.35;52.58;97312.31;4896077;28;20471;-82